sensor_id;sensor_type;location;lat;lon;timestamp;P1;durP1;ratioP1;P2;durP2;ratioP2
8066;SDS011;4076;48.076;9.118;2023-02-07T00:02:17;19.73;;;10.40;;
8066;SDS011;4076;48.076;9.118;2023-02-07T00:04:42;18.83;;;10.57;;
8066;SDS011;4076;48.076;9.118;2023-02-07T00:07:08;14.73;;;10.10;;
8066;SDS011;4076;48.076;9.118;2023-02-07T00:09:33;16.93;;;9.90;;
8066;SDS011;4076;48.076;9.118;2023-02-07T00:12:01;15.23;;;9.90;;
8066;SDS011;4076;48.076;9.118;2023-02-07T00:14:27;15.47;;;9.47;;
8066;SDS011;4076;48.076;9.118;2023-02-07T00:16:53;18.43;;;10.60;;
8066;SDS011;4076;48.076;9.118;2023-02-07T00:19:19;16.47;;;10.07;;
8066;SDS011;4076;48.076;9.118;2023-02-07T00:21:44;12.93;;;10.17;;
8066;SDS011;4076;48.076;9.118;2023-02-07T00:24:10;13.93;;;9.77;;
8066;SDS011;4076;48.076;9.118;2023-02-07T00:26:35;17.53;;;10.80;;
8066;SDS011;4076;48.076;9.118;2023-02-07T00:29:01;18.67;;;11.53;;
8066;SDS011;4076;48.076;9.118;2023-02-07T00:31:29;19.90;;;12.70;;
8066;SDS011;4076;48.076;9.118;2023-02-07T00:33:59;19.50;;;11.03;;
8066;SDS011;4076;48.076;9.118;2023-02-07T00:36:26;15.30;;;9.33;;
8066;SDS011;4076;48.076;9.118;2023-02-07T00:38:57;15.37;;;10.03;;
8066;SDS011;4076;48.076;9.118;2023-02-07T00:41:24;17.67;;;11.27;;
8066;SDS011;4076;48.076;9.118;2023-02-07T00:43:50;17.37;;;10.87;;
8066;SDS011;4076;48.076;9.118;2023-02-07T00:46:15;15.77;;;10.13;;
8066;SDS011;4076;48.076;9.118;2023-02-07T00:48:41;17.80;;;11.20;;
8066;SDS011;4076;48.076;9.118;2023-02-07T00:51:07;22.20;;;11.90;;
8066;SDS011;4076;48.076;9.118;2023-02-07T00:53:34;17.57;;;10.00;;
8066;SDS011;4076;48.076;9.118;2023-02-07T00:55:59;15.13;;;10.13;;
8066;SDS011;4076;48.076;9.118;2023-02-07T00:58:25;20.93;;;12.93;;
8066;SDS011;4076;48.076;9.118;2023-02-07T01:00:51;22.23;;;10.63;;
8066;SDS011;4076;48.076;9.118;2023-02-07T01:03:17;18.23;;;12.10;;
8066;SDS011;4076;48.076;9.118;2023-02-07T01:05:43;18.10;;;12.07;;
8066;SDS011;4076;48.076;9.118;2023-02-07T01:08:08;16.27;;;11.70;;
8066;SDS011;4076;48.076;9.118;2023-02-07T01:10:34;17.27;;;10.13;;
8066;SDS011;4076;48.076;9.118;2023-02-07T01:13:03;17.60;;;10.97;;
8066;SDS011;4076;48.076;9.118;2023-02-07T01:15:28;14.97;;;10.77;;
8066;SDS011;4076;48.076;9.118;2023-02-07T01:17:54;14.13;;;9.80;;
8066;SDS011;4076;48.076;9.118;2023-02-07T01:20:19;16.87;;;11.10;;
8066;SDS011;4076;48.076;9.118;2023-02-07T01:22:45;15.07;;;10.10;;
8066;SDS011;4076;48.076;9.118;2023-02-07T01:25:11;19.97;;;10.40;;
8066;SDS011;4076;48.076;9.118;2023-02-07T01:27:36;16.17;;;11.33;;
8066;SDS011;4076;48.076;9.118;2023-02-07T01:30:02;19.50;;;10.83;;
8066;SDS011;4076;48.076;9.118;2023-02-07T01:32:30;16.40;;;10.47;;
8066;SDS011;4076;48.076;9.118;2023-02-07T01:34:57;16.10;;;9.77;;
8066;SDS011;4076;48.076;9.118;2023-02-07T01:37:22;14.57;;;10.37;;
8066;SDS011;4076;48.076;9.118;2023-02-07T01:39:48;14.60;;;12.70;;
8066;SDS011;4076;48.076;9.118;2023-02-07T01:42:14;17.80;;;10.43;;
8066;SDS011;4076;48.076;9.118;2023-02-07T01:47:06;18.13;;;11.97;;
8066;SDS011;4076;48.076;9.118;2023-02-07T01:49:41;17.10;;;11.97;;
8066;SDS011;4076;48.076;9.118;2023-02-07T01:52:18;18.80;;;11.57;;
8066;SDS011;4076;48.076;9.118;2023-02-07T01:54:47;18.70;;;11.60;;
8066;SDS011;4076;48.076;9.118;2023-02-07T01:57:18;17.03;;;10.57;;
8066;SDS011;4076;48.076;9.118;2023-02-07T01:59:47;18.00;;;13.27;;
8066;SDS011;4076;48.076;9.118;2023-02-07T02:02:14;18.03;;;12.67;;
8066;SDS011;4076;48.076;9.118;2023-02-07T02:04:43;21.13;;;11.70;;
8066;SDS011;4076;48.076;9.118;2023-02-07T02:07:09;18.70;;;13.03;;
8066;SDS011;4076;48.076;9.118;2023-02-07T02:09:37;15.10;;;10.07;;
8066;SDS011;4076;48.076;9.118;2023-02-07T02:14:47;17.00;;;12.73;;
8066;SDS011;4076;48.076;9.118;2023-02-07T02:17:37;22.70;;;14.57;;
8066;SDS011;4076;48.076;9.118;2023-02-07T02:25:48;17.83;;;11.83;;
8066;SDS011;4076;48.076;9.118;2023-02-07T02:28:26;18.43;;;11.17;;
8066;SDS011;4076;48.076;9.118;2023-02-07T02:44:59;20.63;;;14.00;;
8066;SDS011;4076;48.076;9.118;2023-02-07T02:47:36;22.00;;;14.30;;
8066;SDS011;4076;48.076;9.118;2023-02-07T02:50:13;23.67;;;13.13;;
8066;SDS011;4076;48.076;9.118;2023-02-07T02:52:45;22.87;;;14.10;;
8066;SDS011;4076;48.076;9.118;2023-02-07T02:55:10;23.70;;;13.60;;
8066;SDS011;4076;48.076;9.118;2023-02-07T03:08:44;21.10;;;13.47;;
8066;SDS011;4076;48.076;9.118;2023-02-07T03:11:21;24.17;;;15.00;;
8066;SDS011;4076;48.076;9.118;2023-02-07T03:13:58;25.47;;;13.37;;
8066;SDS011;4076;48.076;9.118;2023-02-07T03:21:27;25.37;;;14.90;;
8066;SDS011;4076;48.076;9.118;2023-02-07T03:23:57;25.90;;;15.17;;
8066;SDS011;4076;48.076;9.118;2023-02-07T03:26:25;27.33;;;16.30;;
8066;SDS011;4076;48.076;9.118;2023-02-07T03:28:52;22.87;;;14.80;;
8066;SDS011;4076;48.076;9.118;2023-02-07T03:31:21;27.57;;;14.80;;
8066;SDS011;4076;48.076;9.118;2023-02-07T03:33:48;27.80;;;13.93;;
8066;SDS011;4076;48.076;9.118;2023-02-07T03:38:53;20.50;;;13.27;;
8066;SDS011;4076;48.076;9.118;2023-02-07T03:41:25;22.20;;;13.40;;
8066;SDS011;4076;48.076;9.118;2023-02-07T03:43:55;23.67;;;15.50;;
8066;SDS011;4076;48.076;9.118;2023-02-07T03:46:23;24.60;;;15.90;;
8066;SDS011;4076;48.076;9.118;2023-02-07T03:48:49;33.70;;;15.10;;
8066;SDS011;4076;48.076;9.118;2023-02-07T03:51:14;19.83;;;14.07;;
8066;SDS011;4076;48.076;9.118;2023-02-07T03:53:40;24.57;;;16.73;;
8066;SDS011;4076;48.076;9.118;2023-02-07T03:56:05;26.40;;;18.07;;
8066;SDS011;4076;48.076;9.118;2023-02-07T03:58:31;24.13;;;14.83;;
8066;SDS011;4076;48.076;9.118;2023-02-07T04:00:57;30.90;;;18.00;;
8066;SDS011;4076;48.076;9.118;2023-02-07T04:03:22;28.80;;;17.57;;
8066;SDS011;4076;48.076;9.118;2023-02-07T04:05:48;29.30;;;15.80;;
8066;SDS011;4076;48.076;9.118;2023-02-07T04:08:14;30.07;;;16.63;;
8066;SDS011;4076;48.076;9.118;2023-02-07T04:10:39;26.37;;;17.23;;
8066;SDS011;4076;48.076;9.118;2023-02-07T04:13:05;29.40;;;17.10;;
8066;SDS011;4076;48.076;9.118;2023-02-07T04:15:31;27.67;;;17.30;;
8066;SDS011;4076;48.076;9.118;2023-02-07T04:17:56;24.70;;;17.20;;
8066;SDS011;4076;48.076;9.118;2023-02-07T04:20:22;24.67;;;17.43;;
8066;SDS011;4076;48.076;9.118;2023-02-07T04:22:47;26.23;;;16.40;;
8066;SDS011;4076;48.076;9.118;2023-02-07T04:25:13;23.20;;;15.97;;
8066;SDS011;4076;48.076;9.118;2023-02-07T04:27:38;24.00;;;16.87;;
8066;SDS011;4076;48.076;9.118;2023-02-07T04:30:04;30.73;;;17.30;;
8066;SDS011;4076;48.076;9.118;2023-02-07T04:32:30;27.63;;;17.57;;
8066;SDS011;4076;48.076;9.118;2023-02-07T04:34:55;28.23;;;16.27;;
8066;SDS011;4076;48.076;9.118;2023-02-07T04:37:21;23.97;;;16.47;;
8066;SDS011;4076;48.076;9.118;2023-02-07T04:39:47;27.03;;;17.27;;
8066;SDS011;4076;48.076;9.118;2023-02-07T04:42:12;23.23;;;17.53;;
8066;SDS011;4076;48.076;9.118;2023-02-07T04:44:38;30.73;;;15.87;;
8066;SDS011;4076;48.076;9.118;2023-02-07T04:47:03;33.67;;;16.50;;
8066;SDS011;4076;48.076;9.118;2023-02-07T04:49:29;21.17;;;15.80;;
8066;SDS011;4076;48.076;9.118;2023-02-07T04:51:55;25.10;;;16.67;;
8066;SDS011;4076;48.076;9.118;2023-02-07T04:54:20;25.70;;;17.43;;
8066;SDS011;4076;48.076;9.118;2023-02-07T04:56:46;22.70;;;15.30;;
8066;SDS011;4076;48.076;9.118;2023-02-07T04:59:11;24.17;;;16.40;;
8066;SDS011;4076;48.076;9.118;2023-02-07T05:01:37;22.03;;;15.50;;
8066;SDS011;4076;48.076;9.118;2023-02-07T05:04:03;31.40;;;18.00;;
8066;SDS011;4076;48.076;9.118;2023-02-07T05:06:28;31.53;;;17.63;;
8066;SDS011;4076;48.076;9.118;2023-02-07T05:08:54;24.00;;;16.17;;
8066;SDS011;4076;48.076;9.118;2023-02-07T05:11:19;29.20;;;17.33;;
8066;SDS011;4076;48.076;9.118;2023-02-07T05:13:45;28.27;;;16.67;;
8066;SDS011;4076;48.076;9.118;2023-02-07T05:16:11;25.83;;;16.53;;
8066;SDS011;4076;48.076;9.118;2023-02-07T05:18:36;23.40;;;15.10;;
8066;SDS011;4076;48.076;9.118;2023-02-07T05:21:02;27.43;;;15.70;;
8066;SDS011;4076;48.076;9.118;2023-02-07T05:23:28;19.30;;;14.10;;
8066;SDS011;4076;48.076;9.118;2023-02-07T05:25:53;32.40;;;21.00;;
8066;SDS011;4076;48.076;9.118;2023-02-07T05:28:19;28.33;;;16.43;;
8066;SDS011;4076;48.076;9.118;2023-02-07T05:30:45;25.27;;;16.07;;
8066;SDS011;4076;48.076;9.118;2023-02-07T05:33:10;30.70;;;16.93;;
8066;SDS011;4076;48.076;9.118;2023-02-07T05:35:37;25.93;;;15.90;;
8066;SDS011;4076;48.076;9.118;2023-02-07T05:38:05;25.20;;;16.80;;
8066;SDS011;4076;48.076;9.118;2023-02-07T05:40:33;26.77;;;17.40;;
8066;SDS011;4076;48.076;9.118;2023-02-07T05:42:59;27.87;;;17.43;;
8066;SDS011;4076;48.076;9.118;2023-02-07T05:45:25;23.23;;;17.33;;
8066;SDS011;4076;48.076;9.118;2023-02-07T05:47:50;21.37;;;14.93;;
8066;SDS011;4076;48.076;9.118;2023-02-07T05:50:16;20.70;;;14.13;;
8066;SDS011;4076;48.076;9.118;2023-02-07T05:52:42;25.13;;;17.10;;
8066;SDS011;4076;48.076;9.118;2023-02-07T05:55:08;25.30;;;15.43;;
8066;SDS011;4076;48.076;9.118;2023-02-07T05:57:34;26.33;;;16.23;;
8066;SDS011;4076;48.076;9.118;2023-02-07T05:59:59;28.07;;;16.63;;
8066;SDS011;4076;48.076;9.118;2023-02-07T06:02:25;20.63;;;13.90;;
8066;SDS011;4076;48.076;9.118;2023-02-07T06:04:51;19.60;;;14.40;;
8066;SDS011;4076;48.076;9.118;2023-02-07T06:07:16;21.13;;;14.03;;
8066;SDS011;4076;48.076;9.118;2023-02-07T06:09:42;25.17;;;17.37;;
8066;SDS011;4076;48.076;9.118;2023-02-07T06:12:07;24.67;;;15.47;;
8066;SDS011;4076;48.076;9.118;2023-02-07T06:14:33;26.20;;;16.03;;
8066;SDS011;4076;48.076;9.118;2023-02-07T06:16:58;23.00;;;15.07;;
8066;SDS011;4076;48.076;9.118;2023-02-07T06:19:24;21.57;;;15.90;;
8066;SDS011;4076;48.076;9.118;2023-02-07T06:21:50;25.60;;;16.23;;
8066;SDS011;4076;48.076;9.118;2023-02-07T06:24:15;19.87;;;14.47;;
8066;SDS011;4076;48.076;9.118;2023-02-07T06:26:41;24.67;;;15.93;;
8066;SDS011;4076;48.076;9.118;2023-02-07T06:29:07;21.50;;;15.23;;
8066;SDS011;4076;48.076;9.118;2023-02-07T06:31:32;19.67;;;14.23;;
8066;SDS011;4076;48.076;9.118;2023-02-07T06:33:58;19.50;;;12.40;;
8066;SDS011;4076;48.076;9.118;2023-02-07T06:36:24;20.97;;;14.10;;
8066;SDS011;4076;48.076;9.118;2023-02-07T06:38:49;25.20;;;15.70;;
8066;SDS011;4076;48.076;9.118;2023-02-07T06:41:18;20.53;;;14.43;;
8066;SDS011;4076;48.076;9.118;2023-02-07T06:43:44;19.83;;;15.27;;
8066;SDS011;4076;48.076;9.118;2023-02-07T06:46:10;20.53;;;13.00;;
8066;SDS011;4076;48.076;9.118;2023-02-07T06:48:35;19.60;;;13.50;;
8066;SDS011;4076;48.076;9.118;2023-02-07T06:51:01;26.37;;;16.10;;
8066;SDS011;4076;48.076;9.118;2023-02-07T06:53:26;24.07;;;14.80;;
8066;SDS011;4076;48.076;9.118;2023-02-07T06:55:53;26.70;;;17.00;;
8066;SDS011;4076;48.076;9.118;2023-02-07T06:58:19;25.23;;;16.10;;
8066;SDS011;4076;48.076;9.118;2023-02-07T07:00:45;21.37;;;14.77;;
8066;SDS011;4076;48.076;9.118;2023-02-07T07:03:14;22.40;;;14.63;;
8066;SDS011;4076;48.076;9.118;2023-02-07T07:05:41;28.27;;;15.43;;
8066;SDS011;4076;48.076;9.118;2023-02-07T07:08:08;21.80;;;15.43;;
8066;SDS011;4076;48.076;9.118;2023-02-07T07:10:34;21.63;;;13.97;;
8066;SDS011;4076;48.076;9.118;2023-02-07T07:13:00;20.37;;;16.50;;
8066;SDS011;4076;48.076;9.118;2023-02-07T07:15:25;23.93;;;15.17;;
8066;SDS011;4076;48.076;9.118;2023-02-07T07:17:51;24.87;;;15.97;;
8066;SDS011;4076;48.076;9.118;2023-02-07T07:20:17;24.70;;;15.33;;
8066;SDS011;4076;48.076;9.118;2023-02-07T07:22:43;21.20;;;13.90;;
8066;SDS011;4076;48.076;9.118;2023-02-07T07:25:09;20.20;;;13.60;;
8066;SDS011;4076;48.076;9.118;2023-02-07T07:27:35;21.10;;;17.43;;
8066;SDS011;4076;48.076;9.118;2023-02-07T07:30:00;25.27;;;16.70;;
8066;SDS011;4076;48.076;9.118;2023-02-07T07:32:26;24.57;;;14.90;;
8066;SDS011;4076;48.076;9.118;2023-02-07T07:34:51;33.03;;;18.50;;
8066;SDS011;4076;48.076;9.118;2023-02-07T07:37:18;24.60;;;15.03;;
8066;SDS011;4076;48.076;9.118;2023-02-07T07:39:44;23.50;;;17.33;;
8066;SDS011;4076;48.076;9.118;2023-02-07T07:42:10;21.17;;;14.90;;
8066;SDS011;4076;48.076;9.118;2023-02-07T07:44:35;22.90;;;15.20;;
8066;SDS011;4076;48.076;9.118;2023-02-07T07:47:01;22.70;;;15.60;;
8066;SDS011;4076;48.076;9.118;2023-02-07T07:49:27;29.40;;;18.77;;
8066;SDS011;4076;48.076;9.118;2023-02-07T07:51:52;20.33;;;15.20;;
8066;SDS011;4076;48.076;9.118;2023-02-07T07:54:18;24.93;;;16.63;;
8066;SDS011;4076;48.076;9.118;2023-02-07T07:56:44;25.20;;;19.47;;
8066;SDS011;4076;48.076;9.118;2023-02-07T07:59:09;24.03;;;17.23;;
8066;SDS011;4076;48.076;9.118;2023-02-07T08:01:35;29.33;;;17.77;;
8066;SDS011;4076;48.076;9.118;2023-02-07T08:04:01;24.00;;;16.80;;
8066;SDS011;4076;48.076;9.118;2023-02-07T08:06:28;31.13;;;20.33;;
8066;SDS011;4076;48.076;9.118;2023-02-07T08:08:56;20.63;;;17.00;;
8066;SDS011;4076;48.076;9.118;2023-02-07T08:11:22;25.10;;;15.70;;
8066;SDS011;4076;48.076;9.118;2023-02-07T08:13:47;25.93;;;17.47;;
8066;SDS011;4076;48.076;9.118;2023-02-07T08:16:14;25.10;;;17.50;;
8066;SDS011;4076;48.076;9.118;2023-02-07T08:18:40;25.07;;;16.20;;
8066;SDS011;4076;48.076;9.118;2023-02-07T08:21:06;24.47;;;16.53;;
8066;SDS011;4076;48.076;9.118;2023-02-07T08:23:32;26.47;;;15.60;;
8066;SDS011;4076;48.076;9.118;2023-02-07T08:25:58;24.70;;;17.10;;
8066;SDS011;4076;48.076;9.118;2023-02-07T08:28:24;21.67;;;14.80;;
8066;SDS011;4076;48.076;9.118;2023-02-07T08:30:50;24.13;;;15.57;;
8066;SDS011;4076;48.076;9.118;2023-02-07T08:33:16;23.27;;;13.73;;
8066;SDS011;4076;48.076;9.118;2023-02-07T08:35:41;22.37;;;13.60;;
8066;SDS011;4076;48.076;9.118;2023-02-07T08:38:08;24.13;;;16.57;;
8066;SDS011;4076;48.076;9.118;2023-02-07T08:40:33;23.23;;;15.57;;
8066;SDS011;4076;48.076;9.118;2023-02-07T08:43:00;22.77;;;14.23;;
8066;SDS011;4076;48.076;9.118;2023-02-07T08:45:25;20.70;;;14.60;;
8066;SDS011;4076;48.076;9.118;2023-02-07T08:47:51;23.40;;;16.00;;
8066;SDS011;4076;48.076;9.118;2023-02-07T08:50:17;16.93;;;12.00;;
8066;SDS011;4076;48.076;9.118;2023-02-07T08:52:42;28.33;;;20.50;;
8066;SDS011;4076;48.076;9.118;2023-02-07T08:55:09;26.63;;;17.57;;
8066;SDS011;4076;48.076;9.118;2023-02-07T08:57:35;27.93;;;16.30;;
8066;SDS011;4076;48.076;9.118;2023-02-07T09:00:01;24.13;;;16.20;;
8066;SDS011;4076;48.076;9.118;2023-02-07T09:02:28;26.87;;;16.03;;
8066;SDS011;4076;48.076;9.118;2023-02-07T09:04:54;21.67;;;16.10;;
8066;SDS011;4076;48.076;9.118;2023-02-07T09:07:19;22.20;;;14.23;;
8066;SDS011;4076;48.076;9.118;2023-02-07T09:09:45;21.43;;;13.90;;
8066;SDS011;4076;48.076;9.118;2023-02-07T09:12:11;26.67;;;17.50;;
8066;SDS011;4076;48.076;9.118;2023-02-07T09:14:37;23.07;;;15.73;;
8066;SDS011;4076;48.076;9.118;2023-02-07T09:17:03;26.10;;;17.83;;
8066;SDS011;4076;48.076;9.118;2023-02-07T09:19:30;32.20;;;19.57;;
8066;SDS011;4076;48.076;9.118;2023-02-07T09:21:55;25.37;;;16.40;;
8066;SDS011;4076;48.076;9.118;2023-02-07T09:24:21;21.00;;;16.50;;
8066;SDS011;4076;48.076;9.118;2023-02-07T09:26:47;26.33;;;17.93;;
8066;SDS011;4076;48.076;9.118;2023-02-07T09:29:13;25.10;;;17.23;;
8066;SDS011;4076;48.076;9.118;2023-02-07T09:31:39;20.40;;;15.57;;
8066;SDS011;4076;48.076;9.118;2023-02-07T09:34:05;24.40;;;18.00;;
8066;SDS011;4076;48.076;9.118;2023-02-07T09:36:31;25.30;;;17.20;;
8066;SDS011;4076;48.076;9.118;2023-02-07T09:38:57;27.00;;;16.50;;
8066;SDS011;4076;48.076;9.118;2023-02-07T09:49:46;21.70;;;14.67;;
8066;SDS011;4076;48.076;9.118;2023-02-07T09:52:36;19.80;;;15.80;;
8066;SDS011;4076;48.076;9.118;2023-02-07T09:55:13;22.20;;;16.70;;
8066;SDS011;4076;48.076;9.118;2023-02-07T09:57:56;19.57;;;13.87;;
8066;SDS011;4076;48.076;9.118;2023-02-07T10:00:30;16.97;;;13.63;;
8066;SDS011;4076;48.076;9.118;2023-02-07T10:08:28;18.47;;;13.87;;
8066;SDS011;4076;48.076;9.118;2023-02-07T10:11:12;16.87;;;15.10;;
8066;SDS011;4076;48.076;9.118;2023-02-07T10:16:47;16.17;;;14.50;;
8066;SDS011;4076;48.076;9.118;2023-02-07T10:19:35;14.10;;;12.60;;
8066;SDS011;4076;48.076;9.118;2023-02-07T10:25:05;16.40;;;14.67;;
8066;SDS011;4076;48.076;9.118;2023-02-07T10:30:51;15.50;;;13.90;;
8066;SDS011;4076;48.076;9.118;2023-02-07T10:33:19;18.63;;;16.67;;
8066;SDS011;4076;48.076;9.118;2023-02-07T10:35:48;15.60;;;14.10;;
8066;SDS011;4076;48.076;9.118;2023-02-07T10:38:29;13.40;;;12.00;;
8066;SDS011;4076;48.076;9.118;2023-02-07T10:43:41;17.33;;;15.10;;
8066;SDS011;4076;48.076;9.118;2023-02-07T10:46:10;16.33;;;14.93;;
8066;SDS011;4076;48.076;9.118;2023-02-07T10:48:38;16.87;;;14.13;;
8066;SDS011;4076;48.076;9.118;2023-02-07T10:51:13;15.43;;;13.90;;
8066;SDS011;4076;48.076;9.118;2023-02-07T10:56:33;17.80;;;15.83;;
8066;SDS011;4076;48.076;9.118;2023-02-07T10:59:29;17.43;;;15.53;;
8066;SDS011;4076;48.076;9.118;2023-02-07T11:01:52;17.03;;;15.23;;
8066;SDS011;4076;48.076;9.118;2023-02-07T11:04:38;17.73;;;15.83;;
8066;SDS011;4076;48.076;9.118;2023-02-07T11:07:12;17.30;;;15.50;;
8066;SDS011;4076;48.076;9.118;2023-02-07T11:09:39;15.43;;;13.83;;
8066;SDS011;4076;48.076;9.118;2023-02-07T11:14:59;19.00;;;16.97;;
8066;SDS011;4076;48.076;9.118;2023-02-07T11:17:25;19.23;;;17.23;;
8066;SDS011;4076;48.076;9.118;2023-02-07T11:19:51;22.27;;;19.30;;
8066;SDS011;4076;48.076;9.118;2023-02-07T11:22:21;17.13;;;15.23;;
8066;SDS011;4076;48.076;9.118;2023-02-07T11:24:49;21.00;;;17.50;;
8066;SDS011;4076;48.076;9.118;2023-02-07T11:27:18;19.40;;;17.37;;
8066;SDS011;4076;48.076;9.118;2023-02-07T11:29:50;18.83;;;16.83;;
8066;SDS011;4076;48.076;9.118;2023-02-07T11:32:20;19.90;;;16.73;;
8066;SDS011;4076;48.076;9.118;2023-02-07T11:34:54;23.10;;;17.37;;
8066;SDS011;4076;48.076;9.118;2023-02-07T11:37:26;16.97;;;15.10;;
8066;SDS011;4076;48.076;9.118;2023-02-07T11:39:54;22.50;;;18.23;;
8066;SDS011;4076;48.076;9.118;2023-02-07T11:42:40;15.50;;;13.10;;
8066;SDS011;4076;48.076;9.118;2023-02-07T11:45:11;17.17;;;15.50;;
8066;SDS011;4076;48.076;9.118;2023-02-07T11:47:39;19.97;;;17.00;;
8066;SDS011;4076;48.076;9.118;2023-02-07T11:50:07;17.27;;;15.37;;
8066;SDS011;4076;48.076;9.118;2023-02-07T11:52:47;19.40;;;16.97;;
8066;SDS011;4076;48.076;9.118;2023-02-07T11:55:23;18.17;;;15.30;;
8066;SDS011;4076;48.076;9.118;2023-02-07T11:57:53;18.40;;;15.57;;
8066;SDS011;4076;48.076;9.118;2023-02-07T12:00:22;23.53;;;19.50;;
8066;SDS011;4076;48.076;9.118;2023-02-07T12:03:00;18.77;;;16.77;;
8066;SDS011;4076;48.076;9.118;2023-02-07T12:05:33;17.33;;;15.47;;
8066;SDS011;4076;48.076;9.118;2023-02-07T12:08:13;20.13;;;17.77;;
8066;SDS011;4076;48.076;9.118;2023-02-07T12:10:44;19.43;;;15.90;;
8066;SDS011;4076;48.076;9.118;2023-02-07T12:13:15;21.13;;;17.93;;
8066;SDS011;4076;48.076;9.118;2023-02-07T12:15:58;20.70;;;17.03;;
8066;SDS011;4076;48.076;9.118;2023-02-07T12:18:34;19.20;;;14.90;;
8066;SDS011;4076;48.076;9.118;2023-02-07T12:23:56;22.90;;;17.17;;
8066;SDS011;4076;48.076;9.118;2023-02-07T12:26:26;21.27;;;15.83;;
8066;SDS011;4076;48.076;9.118;2023-02-07T12:31:50;20.63;;;16.67;;
8066;SDS011;4076;48.076;9.118;2023-02-07T12:34:22;18.40;;;16.13;;
8066;SDS011;4076;48.076;9.118;2023-02-07T12:39:39;18.90;;;14.00;;
8066;SDS011;4076;48.076;9.118;2023-02-07T12:44:49;14.90;;;13.40;;
8066;SDS011;4076;48.076;9.118;2023-02-07T12:55:33;16.37;;;13.90;;
8066;SDS011;4076;48.076;9.118;2023-02-07T12:58:16;18.07;;;14.03;;
8066;SDS011;4076;48.076;9.118;2023-02-07T13:09:01;19.37;;;13.50;;
8066;SDS011;4076;48.076;9.118;2023-02-07T13:11:33;16.00;;;10.67;;
8066;SDS011;4076;48.076;9.118;2023-02-07T13:16:43;15.67;;;12.07;;
8066;SDS011;4076;48.076;9.118;2023-02-07T13:22:00;13.60;;;10.80;;
8066;SDS011;4076;48.076;9.118;2023-02-07T13:24:29;17.40;;;12.43;;
8066;SDS011;4076;48.076;9.118;2023-02-07T13:26:59;19.57;;;15.30;;
8066;SDS011;4076;48.076;9.118;2023-02-07T13:29:29;20.20;;;15.83;;
8066;SDS011;4076;48.076;9.118;2023-02-07T13:31:59;19.80;;;14.03;;
8066;SDS011;4076;48.076;9.118;2023-02-07T13:34:27;17.40;;;13.57;;
8066;SDS011;4076;48.076;9.118;2023-02-07T13:36:59;19.37;;;12.90;;
8066;SDS011;4076;48.076;9.118;2023-02-07T13:42:37;16.10;;;12.77;;
8066;SDS011;4076;48.076;9.118;2023-02-07T13:45:26;20.43;;;12.67;;
8066;SDS011;4076;48.076;9.118;2023-02-07T13:51:01;16.13;;;13.47;;
8066;SDS011;4076;48.076;9.118;2023-02-07T13:56:34;15.83;;;13.27;;
8066;SDS011;4076;48.076;9.118;2023-02-07T14:02:24;25.40;;;17.27;;
8066;SDS011;4076;48.076;9.118;2023-02-07T14:04:52;20.07;;;15.20;;
8066;SDS011;4076;48.076;9.118;2023-02-07T14:07:22;21.35;;;15.07;;
8066;SDS011;4076;48.076;9.118;2023-02-07T14:09:53;16.43;;;12.10;;
8066;SDS011;4076;48.076;9.118;2023-02-07T14:12:28;20.60;;;14.63;;
8066;SDS011;4076;48.076;9.118;2023-02-07T14:21:43;15.43;;;11.17;;
8066;SDS011;4076;48.076;9.118;2023-02-07T14:31:47;17.77;;;11.90;;
8066;SDS011;4076;48.076;9.118;2023-02-07T14:34:20;14.80;;;10.70;;
8066;SDS011;4076;48.076;9.118;2023-02-07T14:36:48;13.77;;;10.93;;
8066;SDS011;4076;48.076;9.118;2023-02-07T14:41:43;15.33;;;11.37;;
8066;SDS011;4076;48.076;9.118;2023-02-07T14:44:22;14.13;;;11.80;;
8066;SDS011;4076;48.076;9.118;2023-02-07T14:46:54;13.77;;;11.07;;
8066;SDS011;4076;48.076;9.118;2023-02-07T14:52:06;19.40;;;13.50;;
8066;SDS011;4076;48.076;9.118;2023-02-07T15:05:34;17.37;;;13.07;;
8066;SDS011;4076;48.076;9.118;2023-02-07T15:10:27;17.90;;;12.60;;
8066;SDS011;4076;48.076;9.118;2023-02-07T15:12:54;18.70;;;12.40;;
8066;SDS011;4076;48.076;9.118;2023-02-07T15:18:10;23.97;;;16.30;;
8066;SDS011;4076;48.076;9.118;2023-02-07T15:20:39;19.80;;;13.80;;
8066;SDS011;4076;48.076;9.118;2023-02-07T15:23:05;22.00;;;15.03;;
8066;SDS011;4076;48.076;9.118;2023-02-07T15:25:31;21.93;;;16.00;;
8066;SDS011;4076;48.076;9.118;2023-02-07T15:27:58;18.43;;;12.87;;
8066;SDS011;4076;48.076;9.118;2023-02-07T15:30:24;18.90;;;13.87;;
8066;SDS011;4076;48.076;9.118;2023-02-07T15:32:50;21.57;;;14.60;;
8066;SDS011;4076;48.076;9.118;2023-02-07T15:35:20;20.30;;;14.70;;
8066;SDS011;4076;48.076;9.118;2023-02-07T15:37:48;23.60;;;16.80;;
8066;SDS011;4076;48.076;9.118;2023-02-07T15:40:14;22.87;;;14.63;;
8066;SDS011;4076;48.076;9.118;2023-02-07T15:42:49;19.77;;;15.10;;
8066;SDS011;4076;48.076;9.118;2023-02-07T15:45:27;26.80;;;16.30;;
8066;SDS011;4076;48.076;9.118;2023-02-07T15:47:57;21.37;;;16.33;;
8066;SDS011;4076;48.076;9.118;2023-02-07T15:50:30;20.57;;;13.53;;
8066;SDS011;4076;48.076;9.118;2023-02-07T15:52:56;18.27;;;14.03;;
8066;SDS011;4076;48.076;9.118;2023-02-07T15:55:28;22.43;;;16.90;;
8066;SDS011;4076;48.076;9.118;2023-02-07T15:57:57;20.07;;;15.33;;
8066;SDS011;4076;48.076;9.118;2023-02-07T16:00:25;22.43;;;14.70;;
8066;SDS011;4076;48.076;9.118;2023-02-07T16:03:40;23.57;;;15.77;;
8066;SDS011;4076;48.076;9.118;2023-02-07T16:05:42;21.67;;;15.07;;
8066;SDS011;4076;48.076;9.118;2023-02-07T16:16:37;27.67;;;15.20;;
8066;SDS011;4076;48.076;9.118;2023-02-07T16:21:33;23.83;;;17.07;;
8066;SDS011;4076;48.076;9.118;2023-02-07T16:24:06;22.40;;;17.50;;
8066;SDS011;4076;48.076;9.118;2023-02-07T16:26:33;30.20;;;19.67;;
8066;SDS011;4076;48.076;9.118;2023-02-07T16:29:02;45.17;;;22.80;;
8066;SDS011;4076;48.076;9.118;2023-02-07T16:31:30;36.70;;;22.70;;
8066;SDS011;4076;48.076;9.118;2023-02-07T16:33:56;48.27;;;25.60;;
8066;SDS011;4076;48.076;9.118;2023-02-07T16:36:21;39.67;;;25.20;;
8066;SDS011;4076;48.076;9.118;2023-02-07T16:38:47;43.57;;;25.97;;
8066;SDS011;4076;48.076;9.118;2023-02-07T16:41:19;45.67;;;26.70;;
8066;SDS011;4076;48.076;9.118;2023-02-07T16:43:49;44.53;;;27.17;;
8066;SDS011;4076;48.076;9.118;2023-02-07T16:46:14;24.83;;;17.70;;
8066;SDS011;4076;48.076;9.118;2023-02-07T16:48:40;24.33;;;15.90;;
8066;SDS011;4076;48.076;9.118;2023-02-07T16:51:06;27.77;;;18.90;;
8066;SDS011;4076;48.076;9.118;2023-02-07T16:53:31;32.90;;;21.13;;
8066;SDS011;4076;48.076;9.118;2023-02-07T16:55:57;35.57;;;19.73;;
8066;SDS011;4076;48.076;9.118;2023-02-07T16:58:25;24.40;;;15.37;;
8066;SDS011;4076;48.076;9.118;2023-02-07T17:00:52;17.57;;;13.57;;
8066;SDS011;4076;48.076;9.118;2023-02-07T17:03:18;15.47;;;12.90;;
8066;SDS011;4076;48.076;9.118;2023-02-07T17:05:44;20.30;;;14.20;;
8066;SDS011;4076;48.076;9.118;2023-02-07T17:08:13;22.00;;;14.73;;
8066;SDS011;4076;48.076;9.118;2023-02-07T17:10:41;18.67;;;13.20;;
8066;SDS011;4076;48.076;9.118;2023-02-07T17:13:13;19.63;;;14.73;;
8066;SDS011;4076;48.076;9.118;2023-02-07T17:15:39;26.17;;;16.57;;
8066;SDS011;4076;48.076;9.118;2023-02-07T17:18:04;25.90;;;16.23;;
8066;SDS011;4076;48.076;9.118;2023-02-07T17:20:31;32.53;;;19.50;;
8066;SDS011;4076;48.076;9.118;2023-02-07T17:22:58;21.87;;;16.13;;
8066;SDS011;4076;48.076;9.118;2023-02-07T17:25:25;22.50;;;15.80;;
8066;SDS011;4076;48.076;9.118;2023-02-07T17:27:53;19.73;;;14.83;;
8066;SDS011;4076;48.076;9.118;2023-02-07T17:30:20;21.73;;;14.10;;
8066;SDS011;4076;48.076;9.118;2023-02-07T17:32:51;20.40;;;14.33;;
8066;SDS011;4076;48.076;9.118;2023-02-07T17:35:17;19.47;;;15.23;;
8066;SDS011;4076;48.076;9.118;2023-02-07T17:37:44;25.00;;;14.63;;
8066;SDS011;4076;48.076;9.118;2023-02-07T17:42:49;27.97;;;18.00;;
8066;SDS011;4076;48.076;9.118;2023-02-07T17:45:15;25.63;;;17.70;;